Time;durP1;ratioP1;P1;durP2;ratioP2;P2;SDS_P1;SDS_P2;PMS_P1;PMS_P2;Temp;Humidity;BMP_temperature;BMP_pressure;BME280_temperature;BME280_humidity;BME280_pressure;Samples;Min_cycle;Max_cycle;Signal;HPM_P1;HPM_P2
2023/09/05 00:03:08;;;;;;;6.00;4.20;;;;;;;11.10;79.36;100990.32;218568;1256;140623;-71
2023/09/05 00:08:11;;;;;;;5.50;4.10;;;;;;;11.07;79.26;100987.23;217826;1257;141113;-72
2023/09/05 00:13:14;;;;;;;10.00;4.30;;;;;;;10.96;79.09;100986.40;218427;1256;141475;-71
2023/09/05 00:18:18;;;;;;;5.00;3.60;;;;;;;10.83;79.27;100987.55;218746;1256;140982;-74
2023/09/05 00:23:25;;;;;;;6.00;4.90;;;;;;;10.73;79.34;100987.50;218093;1256;140855;-73
2023/09/05 00:28:29;;;;;;;11.30;6.10;;;;;;;10.69;79.59;100984.84;217860;1256;141181;-69
2023/09/05 00:33:31;;;;;;;5.10;4.60;;;;;;;10.71;79.91;100988.33;218081;1256;141498;-69
2023/09/05 00:38:36;;;;;;;6.50;4.60;;;;;;;10.76;80.16;100994.77;217804;1257;140237;-68
2023/09/05 00:43:40;;;;;;;9.60;5.80;;;;;;;10.74;79.92;100992.54;217639;1256;140253;-70
2023/09/05 00:48:43;;;;;;;7.30;4.60;;;;;;;10.72;80.07;100988.73;219124;1256;140503;-69
2023/09/05 00:53:46;;;;;;;9.60;4.10;;;;;;;10.66;79.78;100983.21;217810;1260;142226;-69
2023/09/05 00:58:51;;;;;;;11.00;4.40;;;;;;;10.50;79.60;100980.73;218211;1257;140410;-69
2023/09/05 01:03:57;;;;;;;12.40;5.40;;;;;;;10.37;79.80;100983.52;218661;1256;140437;-70
2023/09/05 01:09:16;;;;;;;8.50;4.60;;;;;;;10.35;80.16;100975.27;219532;1256;140797;-68
2023/09/05 01:14:20;;;;;;;4.80;4.10;;;;;;;10.28;80.10;100975.13;217593;1257;140708;-68
2023/09/05 01:19:27;;;;;;;5.70;4.80;;;;;;;10.20;80.22;100972.84;218850;1257;140076;-71
2023/09/05 01:24:35;;;;;;;5.70;4.60;;;;;;;10.12;80.19;100965.75;219557;1257;140100;-72
2023/09/05 01:29:39;;;;;;;5.30;4.70;;;;;;;10.06;80.47;100966.05;220501;1256;140753;-73
2023/09/05 01:34:42;;;;;;;6.90;3.60;;;;;;;10.04;80.60;100972.02;217942;1259;140653;-72
2023/09/05 01:39:46;;;;;;;6.40;4.10;;;;;;;10.03;80.87;100974.44;220382;1256;140771;-73
2023/09/05 01:44:49;;;;;;;3.60;3.10;;;;;;;10.04;80.90;100973.00;220376;1256;139961;-75
2023/09/05 01:49:54;;;;;;;5.30;4.80;;;;;;;10.02;80.78;100974.80;217963;1256;140408;-73
2023/09/05 01:54:57;;;;;;;5.00;4.30;;;;;;;10.02;80.56;100970.70;218736;1255;140382;-74
2023/09/05 02:00:01;;;;;;;6.70;4.90;;;;;;;10.00;80.76;100972.95;218733;1257;141266;-71
2023/09/05 02:05:06;;;;;;;6.50;4.80;;;;;;;10.01;81.04;100968.56;218413;1257;140675;-69
2023/09/05 02:10:10;;;;;;;6.10;4.10;;;;;;;10.02;80.82;100958.94;218016;1256;139900;-71
2023/09/05 02:15:14;;;;;;;5.00;4.30;;;;;;;9.93;80.71;100956.98;218641;1256;140060;-75
2023/09/05 02:20:17;;;;;;;23.70;4.60;;;;;;;9.86;80.79;100956.91;217883;1257;140150;-76
2023/09/05 02:25:21;;;;;;;6.10;4.70;;;;;;;9.78;80.83;100964.47;217443;1257;140250;-75
2023/09/05 02:30:25;;;;;;;4.60;4.20;;;;;;;9.65;80.72;100961.18;217881;1256;139995;-71
2023/09/05 02:35:29;;;;;;;5.40;4.10;;;;;;;9.51;80.88;100955.38;217656;1257;140859;-77
2023/09/05 02:40:31;;;;;;;8.00;4.20;;;;;;;9.48;81.24;100951.69;217614;1257;140038;-73
2023/09/05 02:45:36;;;;;;;11.60;5.10;;;;;;;9.51;81.75;100948.74;218772;1257;139806;-75
2023/09/05 02:50:39;;;;;;;8.90;5.80;;;;;;;9.57;81.88;100956.39;218013;1256;141045;-74
2023/09/05 02:55:44;;;;;;;9.30;4.60;;;;;;;9.61;82.08;100949.82;218759;1257;139677;-75
2023/09/05 03:00:50;;;;;;;7.20;5.90;;;;;;;9.62;81.70;100947.56;218216;1258;140818;-74
2023/09/05 03:05:53;;;;;;;7.20;6.60;;;;;;;9.60;81.84;100948.34;219033;1257;140931;-73
2023/09/05 03:10:58;;;;;;;6.40;5.30;;;;;;;9.56;81.62;100954.30;217689;1257;140331;-71
2023/09/05 03:16:02;;;;;;;8.50;6.40;;;;;;;9.52;81.77;100963.50;218765;1257;140096;-73
2023/09/05 03:21:05;;;;;;;5.90;4.60;;;;;;;9.47;81.53;100964.38;218147;1257;140757;-75
2023/09/05 03:26:09;;;;;;;6.20;4.40;;;;;;;9.37;81.60;100960.20;218247;1260;141515;-74
2023/09/05 03:31:12;;;;;;;5.90;5.20;;;;;;;9.31;81.79;100966.46;219959;1256;140249;-75
2023/09/05 03:36:15;;;;;;;11.90;5.00;;;;;;;9.27;81.74;100965.41;220182;1257;140860;-74
2023/09/05 03:41:18;;;;;;;4.90;4.30;;;;;;;9.25;81.82;100967.23;219160;1257;141215;-72
2023/09/05 03:46:21;;;;;;;5.50;4.90;;;;;;;9.21;81.74;100961.41;218054;1257;141662;-72
2023/09/05 03:51:27;;;;;;;6.80;5.40;;;;;;;9.19;82.07;100966.91;219092;1256;140078;-72
2023/09/05 03:56:30;;;;;;;9.10;5.30;;;;;;;9.20;82.06;100971.39;218289;1256;209335;-72
2023/09/05 04:01:34;;;;;;;6.20;5.10;;;;;;;9.20;82.20;100975.98;217796;1260;140349;-73
2023/09/05 04:06:37;;;;;;;7.50;5.10;;;;;;;9.17;81.87;100977.64;217913;1257;140290;-71
2023/09/05 04:11:41;;;;;;;8.60;4.50;;;;;;;9.13;82.06;100975.34;217778;1257;139993;-73
2023/09/05 04:16:44;;;;;;;10.90;5.80;;;;;;;9.06;82.04;100978.48;217822;1257;140787;-74
2023/09/05 04:21:47;;;;;;;10.30;6.10;;;;;;;9.01;82.24;100980.56;217952;1257;139947;-73
2023/09/05 04:26:52;;;;;;;5.40;4.70;;;;;;;9.02;82.47;100983.84;217827;1257;140977;-73
2023/09/05 04:31:56;;;;;;;16.00;6.10;;;;;;;9.04;82.66;100986.43;217781;1260;139925;-68
2023/09/05 04:37:00;;;;;;;7.90;5.80;;;;;;;9.14;83.05;100988.23;217787;1260;141077;-68
2023/09/05 04:42:04;;;;;;;6.50;5.00;;;;;;;9.27;83.32;100987.31;219174;1257;140215;-69
2023/09/05 04:47:21;;;;;;;8.00;5.20;;;;;;;9.40;83.30;100984.83;217820;1260;139876;-71
2023/09/05 04:52:27;;;;;;;7.60;4.70;;;;;;;9.44;83.30;100988.16;217687;1257;140165;-73
2023/09/05 04:57:32;;;;;;;10.20;5.80;;;;;;;9.50;83.69;100989.61;218185;1257;139717;-71
2023/09/05 05:02:35;;;;;;;13.10;9.10;;;;;;;9.57;83.92;100996.41;217878;1256;141253;-71
2023/09/05 05:07:40;;;;;;;14.40;6.10;;;;;;;9.72;84.45;101000.54;218314;1260;140487;-72
2023/09/05 05:12:44;;;;;;;13.30;6.90;;;;;;;9.89;84.73;101003.30;220347;1256;140892;-72
2023/09/05 05:17:47;;;;;;;10.20;8.50;;;;;;;10.10;84.89;100998.95;220410;1257;140411;-74
2023/09/05 05:22:49;;;;;;;12.40;8.10;;;;;;;10.34;85.01;101005.64;218682;1257;141134;-76
2023/09/05 05:27:51;;;;;;;9.70;7.50;;;;;;;10.58;85.58;100997.06;218046;1257;142590;-72
2023/09/05 05:32:54;;;;;;;8.70;7.60;;;;;;;10.81;85.98;100992.80;220401;1260;140429;-70
2023/09/05 05:37:58;;;;;;;9.20;7.90;;;;;;;11.06;86.42;100987.86;218414;1257;142024;-72
2023/09/05 05:43:01;;;;;;;10.20;7.50;;;;;;;11.32;86.49;100984.04;218212;1257;140451;-71
2023/09/05 05:48:07;;;;;;;13.00;8.20;;;;;;;11.55;86.66;100991.28;218660;1259;140578;-70
2023/09/05 05:53:10;;;;;;;10.10;7.50;;;;;;;11.80;86.94;100996.39;218689;1257;140285;-71
2023/09/05 05:58:16;;;;;;;10.70;7.70;;;;;;;12.05;86.91;100993.39;218197;1257;142118;-69
2023/09/05 06:03:21;;;;;;;13.30;7.90;;;;;;;12.31;87.37;100994.81;218143;1260;141113;-68
2023/09/05 06:08:25;;;;;;;11.60;7.10;;;;;;;12.56;87.63;100991.71;217731;1260;140150;-70
2023/09/05 06:13:29;;;;;;;15.00;7.60;;;;;;;12.85;87.93;100989.39;218165;1259;140208;-69
2023/09/05 06:18:33;;;;;;;13.40;7.40;;;;;;;13.07;88.19;100979.77;217742;1257;141913;-73
2023/09/05 06:23:36;;;;;;;14.40;7.50;;;;;;;13.31;88.47;100975.67;217963;1256;140822;-75
2023/09/05 06:28:39;;;;;;;10.60;7.20;;;;;;;13.56;88.26;100976.10;217897;1257;140540;-75
2023/09/05 06:33:43;;;;;;;11.00;6.80;;;;;;;13.81;88.08;100976.17;218420;1260;141299;-74
2023/09/05 06:38:46;;;;;;;9.60;5.70;;;;;;;14.11;87.94;100980.01;217359;1257;140469;-70
2023/09/05 06:43:50;;;;;;;9.70;6.80;;;;;;;14.42;87.98;100982.15;219366;1256;140553;-73
2023/09/05 06:48:52;;;;;;;8.30;6.60;;;;;;;14.85;87.70;100988.97;217817;1257;139756;-73
2023/09/05 06:53:55;;;;;;;8.40;6.20;;;;;;;15.43;87.37;100986.38;217900;1257;140607;-71
2023/09/05 06:58:59;;;;;;;6.90;5.90;;;;;;;15.89;86.32;100984.70;218908;1257;141019;-71
2023/09/05 07:04:03;;;;;;;12.30;6.20;;;;;;;16.56;85.51;100989.33;218811;1257;151968;-70
2023/09/05 07:09:07;;;;;;;5.70;5.20;;;;;;;17.43;84.54;100990.38;218591;1260;140603;-70
2023/09/05 07:14:11;;;;;;;7.60;4.90;;;;;;;18.58;83.26;100993.23;218357;1256;141107;-72
2023/09/05 07:19:17;;;;;;;7.70;4.70;;;;;;;19.97;81.73;100995.95;218065;1260;140871;-70
2023/09/05 07:24:20;;;;;;;4.90;4.50;;;;;;;21.41;78.88;100997.11;217885;1260;140785;-71
2023/09/05 07:29:26;;;;;;;9.70;4.40;;;;;;;22.31;77.02;100993.79;220446;1256;141506;-74
2023/09/05 07:34:29;;;;;;;4.90;4.40;;;;;;;23.06;75.59;100998.52;220548;1256;139555;-73
2023/09/05 07:39:32;;;;;;;14.40;5.70;;;;;;;23.77;73.76;100998.23;220075;1259;140548;-72
2023/09/05 07:44:36;;;;;;;9.10;5.40;;;;;;;24.32;71.37;101004.07;217347;1260;139898;-76
2023/09/05 07:49:43;;;;;;;5.80;4.30;;;;;;;24.72;69.22;101007.92;217135;1260;140320;-77
2023/09/05 07:54:47;;;;;;;5.30;4.30;;;;;;;24.81;67.19;101008.19;218075;1257;139082;-79
2023/09/05 07:59:52;;;;;;;6.00;3.80;;;;;;;24.93;66.42;101012.80;216966;1256;139332;-79
2023/09/05 08:04:56;;;;;;;5.10;3.90;;;;;;;25.08;64.89;101013.80;217422;1256;140697;-80
2023/09/05 08:10:00;;;;;;;4.50;3.20;;;;;;;25.00;63.30;101011.50;218036;1257;139774;-80
2023/09/05 08:15:07;;;;;;;5.20;3.40;;;;;;;24.92;62.37;101010.80;217526;1260;139576;-72
2023/09/05 08:20:12;;;;;;;3.40;3.10;;;;;;;24.80;61.30;101012.04;218499;1260;140932;-74
2023/09/05 08:25:17;;;;;;;7.50;4.00;;;;;;;24.72;60.88;101013.48;217696;1257;139739;-72
2023/09/05 08:30:21;;;;;;;5.40;3.20;;;;;;;24.90;60.55;101015.40;217641;1257;139428;-72
2023/09/05 08:35:25;;;;;;;8.40;4.10;;;;;;;24.94;59.66;101016.83;218237;1257;139968;-72
2023/09/05 08:40:28;;;;;;;4.80;3.60;;;;;;;24.94;59.34;101018.04;218583;1260;140348;-71
2023/09/05 08:45:35;;;;;;;4.30;2.80;;;;;;;24.92;58.72;101021.17;219103;1257;138997;-74
2023/09/05 08:50:41;;;;;;;7.80;4.00;;;;;;;24.90;57.47;101023.56;218062;1257;139118;-72
2023/09/05 08:55:46;;;;;;;5.60;3.40;;;;;;;24.71;56.53;101020.64;217726;1262;140740;-73
2023/09/05 09:00:52;;;;;;;4.90;3.10;;;;;;;24.87;57.52;101021.62;219235;1257;140690;-71
2023/09/05 09:05:57;;;;;;;3.40;2.30;;;;;;;25.09;56.50;101016.14;218014;1259;140005;-72
2023/09/05 09:11:09;;;;;;;4.70;3.30;;;;;;;25.29;56.26;101006.95;217564;1261;139178;-73
2023/09/05 09:16:17;;;;;;;3.20;2.50;;;;;;;25.52;55.79;100999.66;218164;1260;140708;-69
2023/09/05 09:21:23;;;;;;;8.20;2.90;;;;;;;25.66;55.17;100992.95;217407;1260;139711;-68
2023/09/05 09:26:29;;;;;;;6.50;3.00;;;;;;;25.50;54.26;100988.81;218444;1260;141047;-72
2023/09/05 09:31:33;;;;;;;4.90;2.50;;;;;;;25.46;53.94;100986.66;220007;1258;140534;-74
2023/09/05 09:36:38;;;;;;;8.50;3.20;;;;;;;25.32;53.16;100991.54;217947;1257;139812;-73
2023/09/05 09:41:44;;;;;;;5.60;3.50;;;;;;;25.62;53.71;100994.05;219001;1261;139754;-72
2023/09/05 09:46:47;;;;;;;5.50;3.10;;;;;;;25.72;52.22;100993.75;218601;1260;139387;-72
2023/09/05 09:51:56;;;;;;;4.00;3.10;;;;;;;25.77;51.75;100985.66;218437;1260;139700;-69
2023/09/05 09:57:03;;;;;;;4.10;3.50;;;;;;;25.97;51.45;100986.88;218703;1260;139490;-73
2023/09/05 10:02:14;;;;;;;5.20;3.20;;;;;;;26.06;50.80;100982.08;218893;1260;139771;-72
2023/09/05 10:07:19;;;;;;;3.30;2.40;;;;;;;26.16;50.48;100981.46;218505;1258;140218;-70
2023/09/05 10:12:23;;;;;;;4.90;3.50;;;;;;;26.21;50.44;100979.55;217693;1258;140526;-73
2023/09/05 10:17:29;;;;;;;3.50;3.20;;;;;;;26.24;49.91;100973.59;217497;1257;140417;-71
2023/09/05 10:22:39;;;;;;;5.10;3.00;;;;;;;26.15;49.28;100971.16;217341;1261;139424;-73
2023/09/05 10:27:43;;;;;;;5.30;2.90;;;;;;;26.06;48.27;100967.90;217691;1259;140268;-71
2023/09/05 10:32:48;;;;;;;6.10;3.80;;;;;;;26.16;48.78;100964.80;217975;1257;139629;-71
2023/09/05 10:38:03;;;;;;;6.80;3.30;;;;;;;26.37;48.65;100955.19;217517;1258;139640;-70
2023/09/05 10:43:14;;;;;;;4.10;3.60;;;;;;;26.39;47.86;100952.02;217991;1257;140121;-72
2023/09/05 10:48:36;;;;;;;5.90;3.60;;;;;;;26.34;48.02;100941.80;217323;1257;139714;-70
2023/09/05 10:53:42;;;;;;;3.30;3.00;;;;;;;26.26;47.69;100940.52;218245;1258;705369;-69
2023/09/05 10:58:54;;;;;;;3.30;3.00;;;;;;;26.21;46.83;100938.61;217503;1257;140686;-69
2023/09/05 11:04:03;;;;;;;4.30;3.20;;;;;;;26.33;46.81;100931.06;217921;1261;140238;-71
2023/09/05 11:09:09;;;;;;;8.70;3.30;;;;;;;26.26;46.80;100922.32;217774;1260;140616;-72
2023/09/05 11:14:12;;;;;;;5.50;3.10;;;;;;;26.48;47.36;100911.71;219188;1258;140275;-70
2023/09/05 11:19:35;;;;;;;5.40;3.90;;;;;;;26.64;47.28;100910.58;218788;1257;140961;-70
2023/09/05 11:24:49;;;;;;;4.10;3.20;;;;;;;26.73;47.05;100905.77;220193;1257;140450;-72
2023/09/05 11:29:55;;;;;;;2.90;2.60;;;;;;;26.95;47.29;100897.49;220262;1257;140781;-70
2023/09/05 11:35:03;;;;;;;4.60;2.50;;;;;;;26.91;46.60;100894.05;220233;1257;140899;-70
2023/09/05 11:40:14;;;;;;;3.00;2.80;;;;;;;26.97;46.69;100890.52;217987;1260;139743;-70
2023/09/05 11:45:21;;;;;;;4.30;2.90;;;;;;;26.67;45.87;100882.89;218599;1257;140071;-69
2023/09/05 11:50:25;;;;;;;5.70;3.60;;;;;;;26.32;45.82;100880.49;217940;1257;139571;-69
2023/09/05 11:55:29;;;;;;;10.20;3.90;;;;;;;26.15;45.92;100876.42;218527;1258;139570;-69
2023/09/05 12:00:41;;;;;;;3.00;2.70;;;;;;;26.29;45.81;100867.45;217714;1258;140298;-68
2023/09/05 12:05:48;;;;;;;6.60;3.30;;;;;;;26.45;46.19;100863.13;218263;1257;140022;-69
2023/09/05 12:10:55;;;;;;;4.70;3.00;;;;;;;26.50;45.48;100853.98;217833;1256;139673;-70
2023/09/05 12:15:59;;;;;;;4.50;2.80;;;;;;;26.60;45.71;100850.59;217579;1257;139381;-68
2023/09/05 12:21:03;;;;;;;2.90;2.70;;;;;;;26.64;45.58;100839.27;217929;1260;139839;-68
2023/09/05 12:26:06;;;;;;;10.00;3.60;;;;;;;26.60;45.26;100841.90;218093;1258;139738;-69
2023/09/05 12:31:14;;;;;;;4.30;2.50;;;;;;;26.54;44.92;100836.16;218145;1257;140010;-69
2023/09/05 12:36:21;;;;;;;2.90;2.70;;;;;;;26.52;44.95;100834.67;217679;1257;140317;-67
2023/09/05 12:41:25;;;;;;;6.60;3.00;;;;;;;26.38;44.17;100826.71;217529;1257;139508;-70
2023/09/05 12:46:29;;;;;;;5.00;2.10;;;;;;;26.15;43.85;100819.00;218190;1257;140116;-70
2023/09/05 12:51:33;;;;;;;6.60;3.10;;;;;;;25.97;44.19;100815.19;217575;1260;140057;-69
2023/09/05 12:56:36;;;;;;;5.00;2.70;;;;;;;26.08;44.27;100806.05;217716;1260;139704;-70
2023/09/05 13:01:40;;;;;;;3.20;2.90;;;;;;;26.26;43.96;100805.82;217749;1257;141100;-69
2023/09/05 13:06:43;;;;;;;3.40;2.50;;;;;;;26.13;43.41;100798.70;219451;1257;140261;-70
2023/09/05 13:11:47;;;;;;;3.30;2.70;;;;;;;25.99;43.37;100792.29;218184;1257;139643;-69
2023/09/05 13:16:52;;;;;;;5.20;2.80;;;;;;;25.89;43.53;100781.45;219106;1257;142324;-69
2023/09/05 13:21:56;;;;;;;5.60;3.40;;;;;;;25.89;43.49;100775.35;218387;1256;140616;-69
2023/09/05 13:27:00;;;;;;;4.00;3.10;;;;;;;25.84;42.96;100771.04;219881;1256;139402;-70
2023/09/05 13:32:09;;;;;;;3.20;2.60;;;;;;;25.95;43.30;100778.92;220550;1256;140306;-72
2023/09/05 13:37:13;;;;;;;2.60;2.30;;;;;;;26.04;42.61;100773.79;220400;1256;140474;-70
2023/09/05 13:42:16;;;;;;;3.80;2.80;;;;;;;26.03;42.42;100761.21;218823;1257;139994;-69
2023/09/05 13:47:19;;;;;;;5.20;3.50;;;;;;;26.06;42.25;100755.61;217799;1258;140185;-69
2023/09/05 13:52:23;;;;;;;4.90;3.60;;;;;;;26.03;42.00;100758.58;219329;1256;141106;-68
2023/09/05 13:57:27;;;;;;;4.00;2.50;;;;;;;26.00;42.07;100750.23;218257;1260;140813;-70
2023/09/05 14:02:32;;;;;;;3.00;2.80;;;;;;;25.94;41.80;100745.68;218624;1260;140404;-70
2023/09/05 14:07:40;;;;;;;8.60;3.50;;;;;;;25.89;42.20;100748.42;217562;1256;140054;-69
2023/09/05 14:12:43;;;;;;;5.10;2.70;;;;;;;25.89;41.93;100746.63;218389;1257;140818;-69
2023/09/05 14:17:47;;;;;;;3.80;2.80;;;;;;;25.91;42.20;100742.35;217852;1258;139867;-69
2023/09/05 14:22:50;;;;;;;5.70;3.00;;;;;;;25.92;41.93;100737.13;218120;1257;140961;-68
2023/09/05 14:27:56;;;;;;;4.80;2.70;;;;;;;25.91;41.84;100728.02;218127;1256;139389;-69
2023/09/05 14:33:00;;;;;;;5.50;3.40;;;;;;;25.68;41.62;100721.58;217788;1256;139248;-69
2023/09/05 14:38:04;;;;;;;2.90;2.60;;;;;;;25.45;41.68;100714.07;217759;1257;141321;-68
2023/09/05 14:43:07;;;;;;;4.80;3.60;;;;;;;25.34;41.84;100708.70;217770;1257;140158;-70
2023/09/05 14:48:14;;;;;;;16.50;4.20;;;;;;;25.25;42.03;100698.48;217713;1257;140769;-68
2023/09/05 14:53:19;;;;;;;5.60;3.20;;;;;;;25.15;42.07;100688.39;218583;1256;142041;-68
2023/09/05 14:58:23;;;;;;;8.90;3.40;;;;;;;24.91;41.81;100685.88;217865;1260;139355;-69
2023/09/05 15:03:26;;;;;;;3.10;2.30;;;;;;;24.82;42.01;100680.16;218565;1257;140523;-68
2023/09/05 15:08:29;;;;;;;3.00;2.80;;;;;;;24.71;42.34;100672.34;218201;1257;139950;-68
2023/09/05 15:13:33;;;;;;;5.30;3.00;;;;;;;24.64;42.92;100680.02;219800;1256;139380;-69
2023/09/05 15:18:37;;;;;;;6.40;3.70;;;;;;;24.46;42.97;100683.17;220318;1256;140737;-69
2023/09/05 15:23:40;;;;;;;3.90;3.20;;;;;;;24.43;43.53;100678.51;220502;1256;141002;-68
2023/09/05 15:28:43;;;;;;;7.20;3.00;;;;;;;24.46;43.55;100680.45;220421;1256;140097;-68
2023/09/05 15:33:46;;;;;;;6.60;3.10;;;;;;;24.50;43.53;100681.13;219894;1256;138748;-67
2023/09/05 15:38:50;;;;;;;5.10;3.60;;;;;;;24.47;43.88;100684.02;218982;1256;140041;-68
2023/09/05 15:43:54;;;;;;;3.60;2.80;;;;;;;24.44;44.22;100688.77;217904;1256;139175;-67
2023/09/05 15:48:59;;;;;;;4.90;3.60;;;;;;;24.31;44.06;100681.63;217567;1256;139755;-68
2023/09/05 15:54:03;;;;;;;4.20;3.20;;;;;;;24.18;43.74;100679.36;218888;1257;140670;-68
2023/09/05 15:59:07;;;;;;;4.30;3.40;;;;;;;24.00;43.40;100677.69;217845;1256;233931;-68
2023/09/05 16:04:11;;;;;;;4.60;3.80;;;;;;;23.79;44.21;100677.81;218036;1257;140246;-68
2023/09/05 16:09:14;;;;;;;3.90;3.30;;;;;;;23.63;45.11;100671.76;217724;1257;141302;-68
2023/09/05 16:14:20;;;;;;;3.70;3.40;;;;;;;23.44;45.52;100670.49;218595;1256;139504;-69
2023/09/05 16:19:25;;;;;;;3.50;3.20;;;;;;;23.20;46.06;100669.99;217983;1257;141696;-68
2023/09/05 16:24:29;;;;;;;22.00;4.70;;;;;;;22.90;46.76;100667.77;217643;1256;140599;-67
2023/09/05 16:29:32;;;;;;;3.10;2.80;;;;;;;22.58;47.55;100663.89;217910;1257;139309;-68
2023/09/05 16:34:35;;;;;;;5.50;3.70;;;;;;;22.29;48.57;100663.23;217418;1256;139276;-67
2023/09/05 16:39:41;;;;;;;7.50;3.40;;;;;;;22.03;49.76;100661.02;218326;1257;140435;-69
2023/09/05 16:44:46;;;;;;;3.60;3.20;;;;;;;21.78;50.56;100658.23;217596;1259;139867;-68
2023/09/05 16:49:50;;;;;;;4.80;3.40;;;;;;;21.51;51.20;100658.53;217705;1256;139335;-69
2023/09/05 16:54:54;;;;;;;4.40;3.20;;;;;;;21.24;52.00;100662.86;217829;1257;141782;-67
2023/09/05 16:59:57;;;;;;;4.50;3.40;;;;;;;20.97;52.85;100659.79;217941;1260;139825;-69
2023/09/05 17:05:06;;;;;;;4.10;3.10;;;;;;;20.71;53.47;100657.29;218435;1256;140205;-70
2023/09/05 17:10:15;;;;;;;5.70;3.60;;;;;;;20.35;53.76;100650.08;217824;1260;139749;-69
2023/09/05 17:15:20;;;;;;;4.70;4.00;;;;;;;19.86;54.59;100651.14;218731;1256;141061;-70
2023/09/05 17:20:24;;;;;;;5.30;3.80;;;;;;;19.43;55.65;100648.95;220375;1256;161430;-71
2023/09/05 17:25:27;;;;;;;4.30;3.20;;;;;;;19.14;56.63;100653.69;219348;1256;139690;-67
2023/09/05 17:30:30;;;;;;;7.50;3.60;;;;;;;18.92;57.27;100652.20;220461;1256;139749;-68
2023/09/05 17:35:33;;;;;;;2.30;2.10;;;;;;;18.74;57.83;100658.32;220341;1256;140085;-68
2023/09/05 17:40:43;;;;;;;9.50;4.20;;;;;;;18.44;57.74;100662.34;218854;1256;141152;-67
2023/09/05 17:45:48;;;;;;;6.00;3.90;;;;;;;18.12;58.43;100666.67;217924;1257;139586;-68
2023/09/05 17:50:58;;;;;;;4.10;2.50;;;;;;;17.96;59.18;100675.66;219623;1256;139923;-68
2023/09/05 17:56:05;;;;;;;6.00;4.10;;;;;;;17.60;59.30;100677.70;218446;1256;139880;-67
2023/09/05 18:01:11;;;;;;;4.80;4.30;;;;;;;17.26;59.93;100680.00;218856;1257;140841;-68
2023/09/05 18:06:13;;;;;;;7.60;3.50;;;;;;;17.11;60.43;100675.75;217493;1257;141444;-68
2023/09/05 18:11:17;;;;;;;3.10;2.90;;;;;;;16.78;60.86;100678.65;218189;1256;140853;-69
2023/09/05 18:16:23;;;;;;;4.90;3.40;;;;;;;16.41;61.53;100665.59;217790;1257;140294;-68
2023/09/05 18:21:31;;;;;;;4.80;3.20;;;;;;;16.23;62.29;100671.65;218348;1257;140695;-70
2023/09/05 18:26:35;;;;;;;4.20;3.40;;;;;;;16.06;62.59;100668.21;217700;1256;141912;-68
2023/09/05 18:31:40;;;;;;;5.80;3.90;;;;;;;15.80;62.92;100669.60;217629;1260;140549;-68
2023/09/05 18:36:45;;;;;;;11.40;6.90;;;;;;;15.58;63.61;100677.31;218141;1256;140718;-67
2023/09/05 18:41:48;;;;;;;12.10;6.60;;;;;;;15.39;64.00;100686.02;217887;1256;140893;-68
2023/09/05 18:46:54;;;;;;;13.70;6.70;;;;;;;15.26;64.49;100689.87;218085;1256;141106;-68
2023/09/05 18:52:09;;;;;;;12.50;7.20;;;;;;;15.12;64.88;100694.63;218831;1256;141092;-67
2023/09/05 18:57:14;;;;;;;16.50;7.10;;;;;;;15.00;65.34;100694.02;218588;1256;140290;-67
2023/09/05 19:02:27;;;;;;;28.40;6.70;;;;;;;14.94;65.85;100691.98;218584;1256;140975;-67
2023/09/05 19:07:33;;;;;;;18.40;8.10;;;;;;;14.85;65.99;100692.57;220399;1256;140731;-70
2023/09/05 19:12:38;;;;;;;15.60;6.70;;;;;;;14.70;66.32;100687.23;220238;1256;140647;-69
2023/09/05 19:17:43;;;;;;;9.10;4.80;;;;;;;14.50;66.80;100684.14;217834;1259;140327;-67
2023/09/05 19:22:46;;;;;;;23.20;7.70;;;;;;;14.36;67.44;100687.80;219435;1256;214093;-69
2023/09/05 19:27:49;;;;;;;17.50;9.30;;;;;;;14.23;67.72;100680.34;218706;1257;141117;-66
2023/09/05 19:32:55;;;;;;;14.60;6.70;;;;;;;14.10;68.24;100671.63;219000;1257;141820;-66
2023/09/05 19:37:59;;;;;;;9.10;5.60;;;;;;;14.00;68.34;100664.50;218157;1259;140676;-65
2023/09/05 19:43:03;;;;;;;17.30;8.10;;;;;;;13.88;68.69;100659.98;218931;1259;140217;-66
2023/09/05 19:48:08;;;;;;;16.40;7.40;;;;;;;13.87;69.23;100656.89;218029;1259;140711;-68
2023/09/05 19:53:13;;;;;;;14.20;6.10;;;;;;;13.90;69.73;100658.73;217697;1256;141285;-69
2023/09/05 19:58:19;;;;;;;8.50;5.50;;;;;;;13.78;69.55;100656.22;219147;1259;140808;-68
2023/09/05 20:03:23;;;;;;;10.70;6.00;;;;;;;13.58;69.84;100651.26;217642;1256;141285;-69
2023/09/05 20:08:27;;;;;;;9.10;5.60;;;;;;;13.36;69.94;100648.00;218541;1257;141420;-70
2023/09/05 20:13:32;;;;;;;10.10;5.20;;;;;;;13.31;70.73;100655.63;217644;1260;140682;-69
2023/09/05 20:18:35;;;;;;;8.10;5.40;;;;;;;13.30;70.84;100656.78;218020;1257;141188;-69
2023/09/05 20:23:39;;;;;;;8.40;5.40;;;;;;;13.18;70.89;100659.27;218077;1256;140418;-69
2023/09/05 20:28:41;;;;;;;7.70;5.20;;;;;;;13.03;71.08;100660.21;218430;1256;141945;-69
2023/09/05 20:33:46;;;;;;;10.80;5.90;;;;;;;12.98;71.63;100661.89;218807;1257;141121;-70
2023/09/05 20:38:49;;;;;;;5.40;4.50;;;;;;;12.96;71.84;100661.30;217580;1256;140496;-71
2023/09/05 20:43:55;;;;;;;5.50;4.70;;;;;;;12.92;71.88;100653.98;217527;1259;140221;-71
2023/09/05 20:48:58;;;;;;;12.10;6.60;;;;;;;12.89;71.91;100659.16;217543;1256;140356;-69
2023/09/05 20:54:04;;;;;;;6.80;5.60;;;;;;;12.82;72.08;100659.15;218085;1259;139994;-73
2023/09/05 20:59:08;;;;;;;6.90;5.30;;;;;;;12.70;72.18;100659.96;218981;1257;140180;-71
2023/09/05 21:04:12;;;;;;;6.00;4.80;;;;;;;12.62;72.77;100664.06;218152;1258;140036;-70
2023/09/05 21:09:17;;;;;;;5.50;4.60;;;;;;;12.64;72.95;100662.35;217985;1259;140535;-69
2023/09/05 21:14:23;;;;;;;6.80;6.00;;;;;;;12.66;73.06;100666.20;218776;1257;140825;-70
2023/09/05 21:19:27;;;;;;;8.90;5.60;;;;;;;12.55;73.06;100664.35;219329;1259;142048;-72
2023/09/05 21:24:30;;;;;;;5.90;5.30;;;;;;;12.40;73.32;100667.91;218086;1256;140914;-70
2023/09/05 21:29:34;;;;;;;10.00;5.40;;;;;;;12.30;73.36;100672.63;217699;1257;141651;-69
2023/09/05 21:34:37;;;;;;;6.50;4.60;;;;;;;12.20;73.73;100669.05;219118;1256;141983;-67
2023/09/05 21:39:41;;;;;;;8.00;5.50;;;;;;;12.13;74.13;100671.44;217648;1260;140041;-70
2023/09/05 21:44:44;;;;;;;8.90;5.20;;;;;;;12.07;74.37;100672.44;217872;1258;140429;-68
2023/09/05 21:49:51;;;;;;;6.60;5.00;;;;;;;12.07;74.74;100677.66;217534;1258;140233;-67
2023/09/05 21:54:55;;;;;;;11.70;4.60;;;;;;;12.02;74.77;100674.13;217676;1257;140133;-69
2023/09/05 21:59:59;;;;;;;8.60;5.60;;;;;;;11.90;75.06;100670.73;218236;1257;141720;-70
2023/09/05 22:05:03;;;;;;;22.50;7.80;;;;;;;11.80;74.94;100671.91;218314;1257;139929;-70
2023/09/05 22:10:07;;;;;;;12.20;6.70;;;;;;;11.74;75.29;100673.55;218099;1257;140157;-68
2023/09/05 22:15:12;;;;;;;9.80;6.70;;;;;;;11.72;75.43;100672.91;217894;1259;140231;-70
2023/09/05 22:20:16;;;;;;;14.30;6.50;;;;;;;11.66;75.69;100671.77;217674;1260;140458;-69
2023/09/05 22:25:19;;;;;;;10.60;7.20;;;;;;;11.67;75.86;100669.45;217630;1256;140432;-69
2023/09/05 22:30:23;;;;;;;7.30;5.30;;;;;;;11.68;75.72;100666.52;217720;1258;143492;-68
2023/09/05 22:35:28;;;;;;;14.60;6.00;;;;;;;11.60;75.96;100665.13;218481;1256;142346;-69
2023/09/05 22:40:33;;;;;;;8.00;6.10;;;;;;;11.55;76.10;100668.80;218246;1257;140376;-69
2023/09/05 22:45:37;;;;;;;12.60;6.70;;;;;;;11.56;76.27;100673.32;218306;1260;140107;-67
2023/09/05 22:50:43;;;;;;;16.10;6.30;;;;;;;11.49;76.20;100671.76;217543;1256;142342;-65
2023/09/05 22:55:47;;;;;;;7.00;6.20;;;;;;;11.42;76.28;100669.66;217564;1257;797963;-66
2023/09/05 23:00:52;;;;;;;9.60;5.90;;;;;;;11.39;76.39;100674.95;218913;1256;140568;-65
2023/09/05 23:05:58;;;;;;;10.40;6.40;;;;;;;11.34;76.79;100676.83;217573;1260;140252;-65